createdAt,value
2023-01-03T00:01:57.092Z,101890.06
2023-01-03T00:04:29.394Z,101867.63
2023-01-03T00:06:59.050Z,101868.72
2023-01-03T00:09:28.671Z,101872.34
2023-01-03T00:12:10.798Z,101837.59
2023-01-03T00:14:42.022Z,101884.31
2023-01-03T00:17:13.282Z,101892.16
2023-01-03T00:19:47.496Z,101887.03
2023-01-03T00:22:19.048Z,101894.34
2023-01-03T00:24:50.457Z,101896.88
2023-01-03T00:27:20.253Z,101874.28
2023-01-03T00:29:49.918Z,101906.19
2023-01-03T00:32:19.564Z,101907.72
2023-01-03T00:34:51.769Z,101899.50
2023-01-03T00:37:21.558Z,101902.69
2023-01-03T00:39:51.182Z,101892.78
2023-01-03T00:42:20.790Z,101911.41
2023-01-03T00:44:50.379Z,101914.88
2023-01-03T00:47:20.025Z,101912.31
2023-01-03T00:49:52.194Z,101916.94
2023-01-03T00:52:21.796Z,101912.41
2023-01-03T00:54:51.399Z,101919.16
2023-01-03T00:57:21.027Z,101920.81
2023-01-03T00:59:50.714Z,101911.22
2023-01-03T01:02:20.578Z,101914.84
2023-01-03T01:04:53.204Z,101924.66
2023-01-03T01:07:22.815Z,101913.78
2023-01-03T01:09:53.015Z,101928.91
2023-01-03T01:12:22.702Z,101931.25
2023-01-03T01:14:52.353Z,101921.09
2023-01-03T01:17:23.084Z,101932.13
2023-01-03T01:19:55.458Z,101940.09
2023-01-03T01:22:25.123Z,101888.47
2023-01-03T01:24:54.762Z,101937.84
2023-01-03T01:27:25.617Z,101943.72
2023-01-03T01:29:55.313Z,101940.31
2023-01-03T01:32:25.037Z,101926.19
2023-01-03T01:34:57.242Z,101938.19
2023-01-03T01:37:26.854Z,101932.69
2023-01-03T01:39:56.478Z,101959.72
2023-01-03T01:42:38.631Z,101959.47
2023-01-03T01:45:15.005Z,101941.91
2023-01-03T01:47:52.337Z,101956.38
2023-01-03T01:50:32.174Z,101944.31
2023-01-03T01:53:05.671Z,101956.97
2023-01-03T01:55:40.095Z,101962.31
2023-01-03T01:58:12.672Z,101973.09
2023-01-03T02:00:44.760Z,101954.47
2023-01-03T02:03:15.168Z,101975.31
2023-01-03T02:05:51.216Z,101970.78
2023-01-03T02:08:21.133Z,101969.63
2023-01-03T02:11:10.611Z,101992.38
2023-01-03T02:13:49.125Z,101957.06
2023-01-03T02:16:32.629Z,101966.53
2023-01-03T02:19:16.593Z,101999.69
2023-01-03T02:22:11.569Z,101989.38
2023-01-03T02:25:03.069Z,101993.38
2023-01-03T02:28:11.927Z,102000.03
2023-01-03T02:30:51.782Z,101964.91
2023-01-03T02:33:31.743Z,102006.50
2023-01-03T02:36:10.032Z,102024.00
2023-01-03T02:38:50.348Z,102014.72
2023-01-03T02:41:32.353Z,102002.19
2023-01-03T02:44:09.182Z,101991.94
2023-01-03T02:46:46.934Z,102014.69
2023-01-03T02:49:22.869Z,102015.06
2023-01-03T02:51:57.144Z,102013.50
2023-01-03T02:54:33.566Z,102013.50
2023-01-03T02:57:07.319Z,101991.59
2023-01-03T02:59:43.807Z,102008.63
2023-01-03T03:02:19.804Z,102022.53
2023-01-03T03:04:53.450Z,102025.63
2023-01-03T03:07:27.702Z,102015.56
2023-01-03T03:10:11.591Z,102015.06
2023-01-03T03:12:57.747Z,102005.66
2023-01-03T03:15:35.079Z,101989.03
2023-01-03T03:18:11.072Z,102028.66
2023-01-03T03:20:53.267Z,102032.50
2023-01-03T03:23:42.519Z,102018.09
2023-01-03T03:26:15.294Z,102012.59
2023-01-03T03:28:47.841Z,102030.56
2023-01-03T03:31:22.987Z,102016.69
2023-01-03T03:34:00.251Z,102025.53
2023-01-03T03:36:38.282Z,102019.50
2023-01-03T03:39:30.836Z,102018.09
2023-01-03T03:42:23.847Z,102038.91
2023-01-03T03:45:04.310Z,102007.69
2023-01-03T03:47:44.107Z,102015.63
2023-01-03T03:50:21.146Z,102010.97
2023-01-03T03:52:55.682Z,102022.88
2023-01-03T03:55:30.660Z,102015.06
2023-01-03T03:58:03.865Z,102029.88
2023-01-03T04:00:38.699Z,102041.53
2023-01-03T04:03:10.128Z,102025.03
2023-01-03T04:05:46.776Z,102031.69
2023-01-03T04:08:16.548Z,102038.34
2023-01-03T04:10:46.537Z,102033.44
2023-01-03T04:13:16.264Z,102011.47
2023-01-03T04:15:45.897Z,102033.34
2023-01-03T04:18:15.555Z,101944.63
2023-01-03T04:20:47.742Z,102021.91
2023-01-03T04:23:17.392Z,102046.16
2023-01-03T04:25:49.145Z,102041.06
2023-01-03T04:28:19.280Z,102054.06
2023-01-03T04:30:49.762Z,102030.47
2023-01-03T04:33:19.715Z,102043.59
2023-01-03T04:35:51.920Z,102040.59
2023-01-03T04:38:21.572Z,102056.16
2023-01-03T04:40:51.269Z,102044.97
2023-01-03T04:43:33.446Z,102007.09
2023-01-03T04:46:03.179Z,102055.47
2023-01-03T04:48:32.821Z,102056.31
2023-01-03T04:51:05.007Z,102061.81
2023-01-03T04:53:34.666Z,102062.59
2023-01-03T04:56:04.328Z,102057.47
2023-01-03T04:58:34.020Z,102036.38
2023-01-03T05:01:04.645Z,102059.81
2023-01-03T05:03:35.609Z,102059.34
2023-01-03T05:06:10.341Z,102044.97
2023-01-03T05:08:40.024Z,102071.31
2023-01-03T05:11:10.203Z,102066.94
2023-01-03T05:13:39.817Z,102063.63
2023-01-03T05:16:12.233Z,102063.00
2023-01-03T05:18:45.187Z,102064.31
2023-01-03T05:21:33.095Z,102040.25
2023-01-03T05:24:15.528Z,102058.75
2023-01-03T05:26:46.387Z,102072.56
2023-01-03T05:29:18.058Z,102070.97
2023-01-03T05:31:47.786Z,102077.41
2023-01-03T05:34:17.851Z,102072.31
2023-01-03T05:36:50.132Z,102077.03
2023-01-03T05:39:19.765Z,102085.28
2023-01-03T05:42:04.466Z,102082.19
2023-01-03T05:44:36.847Z,102020.16
2023-01-03T05:47:08.183Z,102073.50
2023-01-03T05:49:37.896Z,102042.56
2023-01-03T05:52:10.230Z,102058.13
2023-01-03T05:54:39.819Z,102092.81
2023-01-03T05:57:09.459Z,102097.19
2023-01-03T05:59:39.258Z,102055.34
2023-01-03T06:02:09.047Z,102083.72
2023-01-03T06:04:38.895Z,102035.28
2023-01-03T06:07:11.163Z,102102.09
2023-01-03T06:09:40.892Z,102088.56
2023-01-03T06:12:10.696Z,102097.56
2023-01-03T06:14:41.072Z,102112.97
2023-01-03T06:17:23.270Z,102081.56
2023-01-03T06:19:52.923Z,102113.94
2023-01-03T06:22:25.119Z,102104.66
2023-01-03T06:24:54.698Z,102130.41
2023-01-03T06:27:24.328Z,102124.53
2023-01-03T06:29:54.046Z,102127.06
2023-01-03T06:32:23.766Z,102126.31
2023-01-03T06:34:53.361Z,102130.41
2023-01-03T06:37:25.667Z,102127.69
2023-01-03T06:39:55.263Z,102132.81
2023-01-03T06:42:37.175Z,102131.06
2023-01-03T06:45:20.308Z,102128.34
2023-01-03T06:48:02.519Z,102124.28
2023-01-03T06:50:44.674Z,102133.72
2023-01-03T06:53:19.606Z,102128.06
2023-01-03T06:55:56.341Z,102144.84
2023-01-03T06:58:27.640Z,102138.78
2023-01-03T07:00:58.792Z,102145.22
2023-01-03T07:03:28.603Z,102117.03
2023-01-03T07:05:58.217Z,102145.84
2023-01-03T07:08:30.635Z,102122.75
2023-01-03T07:11:00.320Z,102147.69
2023-01-03T07:13:54.277Z,102123.97
2023-01-03T07:16:23.891Z,102153.16
2023-01-03T07:18:55.513Z,102148.66
2023-01-03T07:21:26.133Z,102153.31
2023-01-03T07:24:01.820Z,102161.19
2023-01-03T07:26:33.664Z,102142.91
2023-01-03T07:29:06.371Z,102159.53
2023-01-03T07:31:36.029Z,102172.09
2023-01-03T07:34:05.719Z,102164.50
2023-01-03T07:36:35.361Z,102173.25
2023-01-03T07:39:07.616Z,102176.31
2023-01-03T07:41:49.754Z,102177.97
2023-01-03T07:44:21.187Z,102189.50
2023-01-03T07:46:50.887Z,102178.72
2023-01-03T07:49:20.580Z,102177.47
2023-01-03T07:51:50.183Z,102173.31
2023-01-03T07:54:22.629Z,102184.63
2023-01-03T07:56:54.226Z,102173.50
2023-01-03T07:59:23.875Z,102174.75
2023-01-03T08:01:53.648Z,102127.28
2023-01-03T08:04:23.527Z,102154.53
2023-01-03T08:06:54.114Z,102193.47
2023-01-03T08:09:38.952Z,102182.47
2023-01-03T08:12:23.579Z,102181.97
2023-01-03T08:14:53.248Z,102199.13
2023-01-03T08:17:23.073Z,102198.44
2023-01-03T08:19:52.779Z,102201.25
2023-01-03T08:22:22.486Z,102185.50
2023-01-03T08:24:54.771Z,102210.22
2023-01-03T08:27:24.446Z,102200.88
2023-01-03T08:29:54.088Z,102222.97
2023-01-03T08:32:24.246Z,102231.84
2023-01-03T08:34:55.288Z,102221.03
2023-01-03T08:37:25.129Z,102220.09
2023-01-03T08:40:04.961Z,102222.31
2023-01-03T08:42:36.596Z,102158.84
2023-01-03T08:45:11.965Z,102195.25
2023-01-03T08:47:41.995Z,102211.94
2023-01-03T08:50:13.434Z,102228.53
2023-01-03T08:52:47.085Z,102214.88
2023-01-03T08:55:19.432Z,102228.81
2023-01-03T08:57:50.268Z,102184.91
2023-01-03T09:00:20.512Z,102215.75
2023-01-03T09:02:50.498Z,102234.34
2023-01-03T09:05:21.691Z,102185.66
2023-01-03T09:07:53.425Z,102223.84
2023-01-03T09:10:26.090Z,102238.66
2023-01-03T09:12:55.977Z,102236.38
2023-01-03T09:15:26.537Z,102214.72
2023-01-03T09:18:00.108Z,102193.78
2023-01-03T09:20:30.831Z,102222.00
2023-01-03T09:23:02.052Z,102230.22
2023-01-03T09:25:37.213Z,102234.03
2023-01-03T09:28:08.302Z,102219.41
2023-01-03T09:30:37.941Z,102219.84
2023-01-03T09:33:10.702Z,102222.38
2023-01-03T09:35:40.611Z,102238.75
2023-01-03T09:38:11.457Z,102227.56
2023-01-03T09:40:50.719Z,102241.66
2023-01-03T09:43:25.664Z,102227.69
2023-01-03T09:45:59.961Z,102238.13
2023-01-03T09:48:34.998Z,102243.34
2023-01-03T09:51:31.173Z,102237.47
2023-01-03T09:54:14.387Z,102233.25
2023-01-03T09:56:59.565Z,102234.84
2023-01-03T09:59:42.184Z,102232.22
2023-01-03T10:02:44.333Z,102220.31
2023-01-03T10:05:36.802Z,102203.84
2023-01-03T10:08:31.178Z,102204.88
2023-01-03T10:11:08.128Z,102221.44
2023-01-03T10:13:51.982Z,102225.28
2023-01-03T10:16:34.495Z,102221.88
2023-01-03T10:19:20.079Z,102209.91
2023-01-03T10:21:57.340Z,102212.44
2023-01-03T10:24:29.163Z,102201.75
2023-01-03T10:27:10.577Z,102186.88
2023-01-03T10:29:44.139Z,102207.00
2023-01-03T10:32:31.920Z,102211.22
2023-01-03T10:35:18.419Z,102203.25
2023-01-03T10:37:49.162Z,102200.88
2023-01-03T10:40:19.164Z,102194.06
2023-01-03T10:42:55.508Z,102183.97
2023-01-03T10:45:27.859Z,102140.03
2023-01-03T10:48:01.708Z,102176.19
2023-01-03T10:50:40.627Z,102163.59
2023-01-03T10:53:16.237Z,102146.59
2023-01-03T10:55:52.634Z,102166.72
2023-01-03T10:58:30.604Z,102162.91
2023-01-03T11:01:24.874Z,102185.59
2023-01-03T11:04:20.025Z,102183.69
2023-01-03T11:07:01.646Z,102179.47
2023-01-03T11:09:37.550Z,102155.72
2023-01-03T11:12:13.950Z,102168.44
2023-01-03T11:14:52.508Z,102176.91
2023-01-03T11:17:26.639Z,102175.00
2023-01-03T11:19:57.857Z,102180.66
2023-01-03T11:22:38.179Z,102178.34
2023-01-03T11:25:21.984Z,102172.84
2023-01-03T11:28:18.243Z,102152.16
2023-01-03T11:31:01.119Z,102148.25
2023-01-03T11:34:02.833Z,102164.22
2023-01-03T11:36:43.075Z,102156.44
2023-01-03T11:39:29.683Z,102162.81
2023-01-03T11:42:30.012Z,102157.16
2023-01-03T11:45:27.751Z,102132.28
2023-01-03T11:48:14.198Z,102101.19
2023-01-03T11:50:54.970Z,102082.81
2023-01-03T11:53:37.115Z,102146.44
2023-01-03T11:56:19.387Z,102144.44
2023-01-03T11:59:14.122Z,102138.34
2023-01-03T12:02:16.619Z,102106.16
2023-01-03T12:05:01.590Z,102096.19
2023-01-03T12:07:51.904Z,102107.97
2023-01-03T12:10:27.665Z,102103.09
2023-01-03T12:13:08.402Z,102081.78
2023-01-03T12:15:47.431Z,102090.91
2023-01-03T12:18:25.496Z,102127.31
2023-01-03T12:20:59.939Z,102109.13
2023-01-03T12:23:41.682Z,102120.66
2023-01-03T12:26:14.314Z,102105.91
2023-01-03T12:28:45.827Z,102111.78
2023-01-03T12:31:31.241Z,102092.63
2023-01-03T12:34:11.499Z,102074.09
2023-01-03T12:36:46.846Z,102104.47
2023-01-03T12:39:45.445Z,102077.56
2023-01-03T12:42:25.060Z,102102.63
2023-01-03T12:45:02.521Z,102108.44
2023-01-03T12:47:38.569Z,102099.19
2023-01-03T12:50:19.411Z,102076.19
2023-01-03T12:52:57.303Z,102068.53
2023-01-03T12:55:44.037Z,102075.03
2023-01-03T12:58:33.861Z,102063.91
2023-01-03T13:01:15.664Z,102078.31
2023-01-03T13:03:52.771Z,102083.78
2023-01-03T13:06:26.417Z,102061.03
2023-01-03T13:09:01.570Z,102033.00
2023-01-03T13:11:39.872Z,102072.91
2023-01-03T13:14:23.606Z,102056.31
2023-01-03T13:16:53.990Z,102066.22
2023-01-03T13:19:42.684Z,102052.31
2023-01-03T13:22:52.236Z,102049.25
2023-01-03T13:25:45.898Z,102048.47
2023-01-03T13:28:37.549Z,102047.88
2023-01-03T13:31:48.134Z,102056.97
2023-01-03T13:34:37.039Z,102047.44
2023-01-03T13:37:20.973Z,102072.69
2023-01-03T13:40:52.094Z,102055.44
2023-01-03T13:43:23.346Z,102074.81
2023-01-03T13:45:59.046Z,102057.16
2023-01-03T13:48:35.965Z,102076.00
2023-01-03T13:51:28.883Z,102064.34
2023-01-03T13:54:02.125Z,102066.75
2023-01-03T13:56:34.066Z,102074.41
2023-01-03T13:59:14.088Z,102071.47
2023-01-03T14:02:02.304Z,102059.31
2023-01-03T14:05:00.478Z,102069.84
2023-01-03T14:07:56.546Z,102045.41
2023-01-03T14:10:41.416Z,102070.72
2023-01-03T14:13:41.029Z,102065.81
2023-01-03T14:16:25.382Z,102076.03
2023-01-03T14:19:14.996Z,102068.00
2023-01-03T14:21:49.093Z,102068.59
2023-01-03T14:24:24.352Z,102073.31
2023-01-03T14:26:54.678Z,102062.09
2023-01-03T14:29:27.153Z,102054.59
2023-01-03T14:32:00.474Z,102076.50
2023-01-03T14:34:43.921Z,102050.38
2023-01-03T14:37:17.836Z,102070.03
2023-01-03T14:39:57.615Z,102086.56
2023-01-03T14:42:27.856Z,102075.41
2023-01-03T14:45:05.223Z,102079.78
2023-01-03T14:47:40.072Z,102082.63
2023-01-03T14:50:17.923Z,102085.22
2023-01-03T14:52:53.673Z,102083.34
2023-01-03T14:55:28.927Z,102084.31
2023-01-03T14:57:59.580Z,102091.94
2023-01-03T15:00:33.526Z,102090.69
2023-01-03T15:03:04.974Z,102069.53
2023-01-03T15:05:40.785Z,102052.88
2023-01-03T15:08:25.415Z,102085.66
2023-01-03T15:10:59.741Z,102094.91
2023-01-03T15:13:35.769Z,102086.84
2023-01-03T15:16:21.258Z,102099.59
2023-01-03T15:18:52.321Z,102103.19
2023-01-03T15:21:28.010Z,102106.69
2023-01-03T15:24:00.038Z,102101.16
2023-01-03T15:26:42.113Z,102108.59
2023-01-03T15:29:16.820Z,102079.47
2023-01-03T15:31:53.804Z,102101.84
2023-01-03T15:34:28.490Z,102100.53
2023-01-03T15:37:03.319Z,102088.69
2023-01-03T15:39:42.917Z,102070.22
2023-01-03T15:42:44.677Z,102092.03
2023-01-03T15:45:21.929Z,102059.66
2023-01-03T15:47:54.187Z,102109.19
2023-01-03T15:50:36.628Z,102063.38
2023-01-03T15:53:23.840Z,102092.66
2023-01-03T15:55:55.320Z,102103.88
2023-01-03T15:58:27.380Z,102070.72
2023-01-03T16:00:57.609Z,102098.72
2023-01-03T16:03:32.443Z,102085.84
2023-01-03T16:06:06.442Z,102100.53
2023-01-03T16:08:42.569Z,102074.69
2023-01-03T16:11:19.871Z,102078.03
2023-01-03T16:13:54.802Z,102086.44
2023-01-03T16:16:29.220Z,102062.00
2023-01-03T16:19:04.102Z,102086.38
2023-01-03T16:21:34.182Z,102077.88
2023-01-03T16:24:06.704Z,102083.13
2023-01-03T16:26:36.367Z,102080.19
2023-01-03T16:29:08.036Z,102089.41
2023-01-03T16:31:42.297Z,102071.59
2023-01-03T16:34:20.148Z,102074.00
2023-01-03T16:36:55.501Z,102085.41
2023-01-03T16:39:29.399Z,102050.03
2023-01-03T16:42:12.584Z,102080.69
2023-01-03T16:44:44.161Z,102077.56
2023-01-03T16:47:18.281Z,102044.66
2023-01-03T16:49:50.119Z,102066.75
2023-01-03T16:52:26.944Z,102065.41
2023-01-03T16:54:59.402Z,102031.47
2023-01-03T16:57:30.725Z,102070.78
2023-01-03T17:00:00.518Z,102053.69
2023-01-03T17:02:34.194Z,102060.25
2023-01-03T17:05:04.979Z,102065.13
2023-01-03T17:07:34.862Z,102061.63
2023-01-03T17:10:26.062Z,102061.63
2023-01-03T17:13:04.114Z,102056.00
2023-01-03T17:15:38.122Z,102003.22
2023-01-03T17:18:08.822Z,102043.38
2023-01-03T17:20:38.501Z,102043.38
2023-01-03T17:23:12.017Z,102007.94
2023-01-03T17:25:44.725Z,102016.97
2023-01-03T17:28:20.219Z,102045.78
2023-01-03T17:30:56.662Z,102049.34
2023-01-03T17:33:32.077Z,102050.41
2023-01-03T17:36:03.701Z,102048.41
2023-01-03T17:38:37.349Z,102009.84
2023-01-03T17:41:16.886Z,102040.56
2023-01-03T17:43:46.559Z,102026.56
2023-01-03T17:46:32.846Z,102044.69
2023-01-03T17:49:18.666Z,102047.88
2023-01-03T17:51:48.820Z,102045.75
2023-01-03T17:54:18.814Z,102043.44
2023-01-03T17:56:52.095Z,101984.78
2023-01-03T17:59:21.759Z,102039.25
2023-01-03T18:01:52.355Z,102028.34
2023-01-03T18:04:30.207Z,102017.25
2023-01-03T18:07:08.204Z,102038.94
2023-01-03T18:09:38.298Z,102027.66
2023-01-03T18:12:12.464Z,102037.41
2023-01-03T18:14:42.051Z,102011.88
2023-01-03T18:17:29.760Z,102033.94
2023-01-03T18:20:00.998Z,102018.53
2023-01-03T18:22:34.172Z,102029.66
2023-01-03T18:25:03.834Z,102023.59
2023-01-03T18:27:37.360Z,101969.44
2023-01-03T18:30:08.429Z,102029.56
2023-01-03T18:32:38.069Z,102019.72
2023-01-03T18:35:09.646Z,102015.28
2023-01-03T18:37:43.642Z,101994.31
2023-01-03T18:40:21.169Z,102024.72
2023-01-03T18:43:06.978Z,102020.59
2023-01-03T18:45:38.347Z,102025.22
2023-01-03T18:48:08.879Z,102017.03
2023-01-03T18:50:39.470Z,102024.97
2023-01-03T18:53:09.460Z,102020.94
2023-01-03T18:55:39.115Z,102008.78
2023-01-03T18:58:19.835Z,102023.69
2023-01-03T19:00:53.141Z,102019.50
2023-01-03T19:03:25.646Z,102008.28
2023-01-03T19:05:57.414Z,101994.88
2023-01-03T19:08:29.222Z,102008.44
2023-01-03T19:11:00.378Z,101988.13
2023-01-03T19:13:50.517Z,102003.13
2023-01-03T19:16:22.893Z,102007.81
2023-01-03T19:18:54.330Z,101995.50
2023-01-03T19:21:25.806Z,101997.41
2023-01-03T19:24:02.105Z,102007.44
2023-01-03T19:26:37.058Z,102002.81
2023-01-03T19:29:14.320Z,102000.41
2023-01-03T19:31:50.184Z,101995.03
2023-01-03T19:34:21.646Z,101987.41
2023-01-03T19:36:51.564Z,101992.28
2023-01-03T19:39:26.746Z,101989.31
2023-01-03T19:42:13.607Z,101976.00
2023-01-03T19:44:47.018Z,101956.13
2023-01-03T19:47:19.967Z,101973.38
2023-01-03T19:49:50.978Z,101964.34
2023-01-03T19:52:21.355Z,101885.19
2023-01-03T19:54:51.025Z,101925.66
2023-01-03T19:57:25.244Z,101938.97
2023-01-03T20:00:01.097Z,101947.69
2023-01-03T20:02:39.764Z,101931.53
2023-01-03T20:05:19.937Z,101935.22
2023-01-03T20:07:50.480Z,101941.53
2023-01-03T20:10:22.251Z,101918.75
2023-01-03T20:12:55.761Z,101945.59
2023-01-03T20:15:30.740Z,101942.19
2023-01-03T20:18:00.886Z,101928.25
2023-01-03T20:20:33.396Z,101920.09
2023-01-03T20:23:07.059Z,101934.22
2023-01-03T20:25:39.635Z,101928.81
2023-01-03T20:28:16.215Z,101922.47
2023-01-03T20:30:51.716Z,101893.69
2023-01-03T20:33:23.375Z,101906.53
2023-01-03T20:36:20.003Z,101915.72
2023-01-03T20:38:49.860Z,101886.22
2023-01-03T20:41:21.076Z,101919.25
2023-01-03T20:43:52.343Z,101915.94
2023-01-03T20:46:25.181Z,101896.41
2023-01-03T20:48:58.548Z,101900.47
2023-01-03T20:51:29.331Z,101894.31
2023-01-03T20:53:59.032Z,101893.78
2023-01-03T20:56:29.325Z,101843.94
2023-01-03T20:58:59.029Z,101853.66
2023-01-03T21:01:31.450Z,101848.78
2023-01-03T21:04:01.203Z,101845.94
2023-01-03T21:06:31.882Z,101831.34
2023-01-03T21:08:59.277Z,101843.50
2023-01-03T21:11:30.882Z,101832.03
2023-01-03T21:14:02.348Z,101794.19
2023-01-03T21:16:36.936Z,101833.88
2023-01-03T21:19:09.366Z,101838.09
2023-01-03T21:21:39.021Z,101830.84
2023-01-03T21:24:10.488Z,101837.53
2023-01-03T21:26:40.484Z,101833.31
2023-01-03T21:29:12.147Z,101838.63
2023-01-03T21:31:45.713Z,101840.38
2023-01-03T21:34:19.596Z,101803.09
2023-01-03T21:36:49.702Z,101808.63
2023-01-03T21:39:20.558Z,101808.41
2023-01-03T21:42:02.761Z,101812.69
2023-01-03T21:44:32.409Z,101752.81
2023-01-03T21:47:04.763Z,101798.03
2023-01-03T21:49:34.713Z,101786.31
2023-01-03T21:52:04.665Z,101790.09
2023-01-03T21:54:34.503Z,101796.13
2023-01-03T21:57:04.371Z,101792.16
2023-01-03T21:59:38.176Z,101782.78
2023-01-03T22:02:25.221Z,101756.53
2023-01-03T22:04:55.133Z,101792.78
2023-01-03T22:07:25.803Z,101776.28
2023-01-03T22:10:08.030Z,101791.59
2023-01-03T22:12:37.787Z,101794.16
2023-01-03T22:15:08.711Z,101781.53
2023-01-03T22:17:43.234Z,101801.81
2023-01-03T22:20:15.278Z,101765.16
2023-01-03T22:22:47.425Z,101776.16
2023-01-03T22:25:22.684Z,101795.06
2023-01-03T22:27:52.608Z,101790.50
2023-01-03T22:30:22.904Z,101767.72
2023-01-03T22:32:58.838Z,101799.13
2023-01-03T22:35:28.566Z,101791.25
2023-01-03T22:37:59.115Z,101777.38
2023-01-03T22:40:29.829Z,101790.25
2023-01-03T22:42:59.456Z,101788.66
2023-01-03T22:45:29.181Z,101764.56
2023-01-03T22:48:02.751Z,101774.41
2023-01-03T22:50:33.503Z,101773.09
2023-01-03T22:53:04.410Z,101762.00
2023-01-03T22:55:35.251Z,101760.75
2023-01-03T22:58:05.289Z,101742.28
2023-01-03T23:00:35.001Z,101739.97
2023-01-03T23:03:07.399Z,101738.41
2023-01-03T23:05:38.022Z,101698.97
2023-01-03T23:08:09.767Z,101728.72
2023-01-03T23:10:39.506Z,101712.22
2023-01-03T23:13:07.735Z,101721.25
2023-01-03T23:15:37.408Z,101684.56
2023-01-03T23:18:10.718Z,101694.16
2023-01-03T23:20:49.036Z,101727.19
2023-01-03T23:23:19.032Z,101696.06
2023-01-03T23:25:48.816Z,101728.09
2023-01-03T23:28:18.748Z,101709.63
2023-01-03T23:30:49.057Z,101721.44
2023-01-03T23:33:21.875Z,101727.94
2023-01-03T23:35:53.811Z,101711.75
2023-01-03T23:38:23.500Z,101702.81
2023-01-03T23:40:53.249Z,101700.09
2023-01-03T23:43:22.951Z,101623.00
2023-01-03T23:45:53.744Z,101685.69
2023-01-03T23:48:26.036Z,101689.09
2023-01-03T23:50:55.656Z,101669.09
2023-01-03T23:53:25.262Z,101647.41
2023-01-03T23:55:54.887Z,101661.50
2023-01-03T23:58:24.549Z,101634.97
